createdAt,value
2022-09-20T00:01:14.860Z,0.60
2022-09-20T00:03:44.671Z,0.70
2022-09-20T00:06:17.786Z,0.75
2022-09-20T00:08:46.366Z,0.80
2022-09-20T00:11:20.954Z,0.90
2022-09-20T00:13:50.229Z,0.95
2022-09-20T00:16:22.811Z,0.73
2022-09-20T00:18:52.085Z,0.70
2022-09-20T00:21:22.362Z,0.70
2022-09-20T00:23:49.858Z,0.60
2022-09-20T00:26:17.736Z,0.70
2022-09-20T00:28:47.271Z,0.80
2022-09-20T00:31:15.548Z,0.80
2022-09-20T00:33:58.555Z,0.90
2022-09-20T00:36:27.632Z,0.68
2022-09-20T00:38:56.890Z,0.70
2022-09-20T00:41:24.456Z,0.65
2022-09-20T00:43:53.060Z,0.70
2022-09-20T00:46:38.163Z,0.60
2022-09-20T00:49:18.933Z,0.73
2022-09-20T00:51:51.093Z,0.80
2022-09-20T00:54:20.805Z,0.70
2022-09-20T00:56:49.252Z,0.73
2022-09-20T00:59:22.886Z,0.93
2022-09-20T01:01:54.321Z,0.90
2022-09-20T01:04:25.584Z,0.80
2022-09-20T01:06:56.479Z,0.77
2022-09-20T01:09:23.806Z,0.85
2022-09-20T01:11:52.197Z,0.60
2022-09-20T01:14:22.456Z,0.70
2022-09-20T01:16:50.989Z,0.63
2022-09-20T01:19:33.832Z,0.70
2022-09-20T01:22:06.003Z,0.60
2022-09-20T01:24:44.829Z,0.80
2022-09-20T01:27:43.051Z,0.60
2022-09-20T01:30:18.645Z,0.70
2022-09-20T01:33:07.774Z,0.75
2022-09-20T01:35:36.851Z,0.70
2022-09-20T01:38:35.065Z,0.90
2022-09-20T01:41:12.583Z,0.70
2022-09-20T01:43:48.705Z,0.80
2022-09-20T01:46:29.050Z,0.60
2022-09-20T01:49:16.427Z,0.70
2022-09-20T01:52:22.826Z,0.70
2022-09-20T01:55:14.732Z,0.50
2022-09-20T01:58:10.683Z,0.68
2022-09-20T02:01:13.369Z,0.68
2022-09-20T02:04:10.276Z,0.90
2022-09-20T02:06:59.309Z,0.77
2022-09-20T02:09:57.121Z,0.80
2022-09-20T02:12:55.409Z,0.68
2022-09-20T02:15:53.192Z,0.80
2022-09-20T02:18:38.251Z,0.80
2022-09-20T02:21:27.974Z,0.80
2022-09-20T02:24:15.636Z,0.60
2022-09-20T02:27:13.976Z,0.80
2022-09-20T02:30:07.797Z,0.70
2022-09-20T02:33:00.434Z,0.82
2022-09-20T02:36:08.170Z,0.87
2022-09-20T02:39:06.505Z,0.70
2022-09-20T02:41:55.177Z,1.00
2022-09-20T02:44:37.103Z,0.90
2022-09-20T02:47:21.121Z,0.68
2022-09-20T02:50:03.888Z,0.90
2022-09-20T02:52:56.651Z,0.70
2022-09-20T02:55:47.473Z,1.00
2022-09-20T02:58:42.081Z,1.00
2022-09-20T03:01:33.889Z,0.90
2022-09-20T03:04:23.826Z,1.02
2022-09-20T03:07:02.050Z,0.80
2022-09-20T03:10:09.228Z,0.93
2022-09-20T03:12:51.437Z,0.80
2022-09-20T03:15:43.257Z,1.02
2022-09-20T03:18:29.148Z,0.90
2022-09-20T03:21:09.939Z,0.90
2022-09-20T03:23:49.581Z,0.85
2022-09-20T03:26:47.232Z,1.10
2022-09-20T03:29:36.365Z,1.08
2022-09-20T03:32:24.578Z,0.75
2022-09-20T03:35:21.492Z,0.82
2022-09-20T03:38:20.804Z,1.00
2022-09-20T03:41:27.922Z,0.75
2022-09-20T03:44:24.484Z,1.10
2022-09-20T03:47:01.373Z,1.08
2022-09-20T03:49:58.715Z,1.10
2022-09-20T03:52:49.624Z,1.15
2022-09-20T03:55:47.756Z,1.23
2022-09-20T03:58:50.826Z,1.10
2022-09-20T04:01:49.160Z,1.20
2022-09-20T04:04:33.465Z,0.82
2022-09-20T04:07:21.374Z,0.90
2022-09-20T04:10:17.374Z,1.10
2022-09-20T04:13:12.378Z,1.20
2022-09-20T04:16:09.667Z,0.90
2022-09-20T04:18:45.846Z,1.30
2022-09-20T04:21:32.535Z,1.13
2022-09-20T04:24:12.487Z,1.05
2022-09-20T04:26:47.566Z,1.33
2022-09-20T04:29:46.229Z,1.25
2022-09-20T04:32:30.986Z,1.08
2022-09-20T04:35:29.158Z,1.00
2022-09-20T04:37:57.283Z,1.08
2022-09-20T04:40:42.809Z,1.50
2022-09-20T04:43:41.356Z,1.20
2022-09-20T04:46:32.805Z,1.05
2022-09-20T04:49:29.842Z,1.40
2022-09-20T04:52:25.171Z,0.95
2022-09-20T04:55:27.876Z,1.15
2022-09-20T04:58:26.098Z,1.23
2022-09-20T05:01:32.261Z,1.33
2022-09-20T05:04:31.208Z,1.00
2022-09-20T05:07:29.261Z,1.00
2022-09-20T05:10:24.461Z,1.23
2022-09-20T05:13:12.918Z,1.20
2022-09-20T05:16:01.883Z,1.02
2022-09-20T05:18:50.090Z,1.25
2022-09-20T05:21:37.461Z,0.90
2022-09-20T05:24:32.119Z,1.17
2022-09-20T05:27:14.189Z,1.00
2022-09-20T05:30:11.154Z,1.20
2022-09-20T05:32:48.716Z,1.05
2022-09-20T05:35:27.084Z,1.10
2022-09-20T05:38:26.747Z,0.93
2022-09-20T05:41:19.189Z,1.00
2022-09-20T05:44:13.116Z,1.02
2022-09-20T05:46:59.277Z,1.20
2022-09-20T05:49:45.897Z,1.00
2022-09-20T05:52:38.783Z,1.35
2022-09-20T05:55:28.753Z,1.40
2022-09-20T05:58:17.697Z,1.30
2022-09-20T06:00:59.285Z,1.40
2022-09-20T06:03:47.714Z,1.30
2022-09-20T06:06:32.366Z,0.90
2022-09-20T06:09:26.856Z,1.08
2022-09-20T06:12:29.854Z,1.38
2022-09-20T06:15:12.398Z,1.30
2022-09-20T06:17:48.372Z,1.55
2022-09-20T06:20:30.010Z,1.20
2022-09-20T06:23:00.940Z,1.60
2022-09-20T06:25:48.241Z,1.85
2022-09-20T06:28:21.309Z,1.38
2022-09-20T06:33:22.824Z,1.30
2022-09-20T06:35:59.191Z,1.85
2022-09-20T06:38:58.332Z,1.25
2022-09-20T06:41:30.770Z,1.15
2022-09-20T06:43:59.762Z,1.63
2022-09-20T06:46:29.074Z,1.10
2022-09-20T06:48:57.338Z,1.00
2022-09-20T06:51:27.085Z,1.20
2022-09-20T06:53:56.192Z,1.10
2022-09-20T06:56:28.141Z,1.05
2022-09-20T06:58:55.783Z,1.20
2022-09-20T07:01:30.203Z,1.00
2022-09-20T07:03:59.097Z,1.00
2022-09-20T07:06:26.941Z,1.30
2022-09-20T07:08:54.261Z,1.20
2022-09-20T07:11:23.497Z,1.15
2022-09-20T07:13:53.924Z,1.20
2022-09-20T07:16:22.119Z,0.90
2022-09-20T07:18:49.857Z,1.05
2022-09-20T07:21:19.331Z,1.10
2022-09-20T07:23:48.708Z,1.40
2022-09-20T07:26:21.818Z,1.20
2022-09-20T07:28:49.694Z,1.20
2022-09-20T07:31:19.284Z,1.00
2022-09-20T07:33:47.221Z,0.90
2022-09-20T07:36:14.902Z,1.20
2022-09-20T07:38:43.299Z,1.27
2022-09-20T07:41:10.829Z,1.30
2022-09-20T07:43:38.327Z,1.00
2022-09-20T07:46:06.478Z,1.10
2022-09-20T07:48:36.937Z,1.20
2022-09-20T07:51:08.953Z,1.00
2022-09-20T07:53:37.975Z,1.05
2022-09-20T07:56:11.358Z,1.00
2022-09-20T07:58:39.509Z,0.90
2022-09-20T08:01:10.074Z,1.20
2022-09-20T08:03:38.033Z,0.85
2022-09-20T08:06:08.675Z,1.23
2022-09-20T08:08:38.022Z,1.10
2022-09-20T08:11:08.936Z,1.08
2022-09-20T08:16:28.623Z,1.17
2022-09-20T08:18:59.160Z,1.23
2022-09-20T08:21:31.700Z,1.10
2022-09-20T08:24:00.273Z,1.00
2022-09-20T08:26:29.771Z,1.05
2022-09-20T08:28:59.141Z,0.93
2022-09-20T08:31:30.909Z,1.05
2022-09-20T08:33:59.369Z,1.10
2022-09-20T08:36:28.974Z,0.90
2022-09-20T08:41:56.516Z,1.05
2022-09-20T08:44:45.340Z,1.30
2022-09-20T08:47:22.675Z,0.90
2022-09-20T08:49:57.985Z,1.15
2022-09-20T08:52:36.232Z,1.05
2022-09-20T08:55:17.159Z,1.00
2022-09-20T08:57:50.413Z,1.10
2022-09-20T09:02:47.514Z,0.90
2022-09-20T09:05:33.175Z,1.25
2022-09-20T09:08:08.102Z,1.30
2022-09-20T09:10:43.246Z,1.38
2022-09-20T09:13:23.077Z,1.10
2022-09-20T09:15:57.409Z,1.20
2022-09-20T09:18:33.257Z,1.00
2022-09-20T09:21:04.409Z,1.15
2022-09-20T09:23:42.000Z,1.10
2022-09-20T09:26:25.648Z,1.00
2022-09-20T09:29:16.039Z,0.90
2022-09-20T09:31:45.403Z,0.80
2022-09-20T09:34:29.909Z,1.10
2022-09-20T09:36:58.883Z,0.95
2022-09-20T09:39:32.748Z,1.00
2022-09-20T09:42:01.501Z,1.10
2022-09-20T09:44:34.023Z,1.30
2022-09-20T09:47:02.448Z,1.95
2022-09-20T09:49:36.413Z,1.40
2022-09-20T09:52:15.118Z,1.05
2022-09-20T09:54:50.358Z,1.00
2022-09-20T09:57:54.185Z,0.90
2022-09-20T10:00:23.996Z,0.70
2022-09-20T10:03:12.584Z,1.10
2022-09-20T10:06:05.096Z,1.08
2022-09-20T10:09:00.205Z,1.20
2022-09-20T10:11:46.575Z,1.20
2022-09-20T10:14:30.321Z,1.00
2022-09-20T10:17:21.781Z,1.10
2022-09-20T10:20:28.861Z,1.33
2022-09-20T10:24:01.258Z,1.10
2022-09-20T10:26:32.329Z,1.25
2022-09-20T10:29:21.179Z,0.93
2022-09-20T10:32:19.195Z,0.90
2022-09-20T10:35:21.684Z,1.10
2022-09-20T10:38:20.024Z,1.00
2022-09-20T10:41:27.045Z,1.10
2022-09-20T10:44:17.332Z,1.00
2022-09-20T10:47:06.993Z,1.02
2022-09-20T10:49:50.809Z,1.23
2022-09-20T10:52:45.483Z,1.20
2022-09-20T10:55:29.683Z,1.20
2022-09-20T10:58:21.553Z,1.25
2022-09-20T11:01:11.416Z,1.00
2022-09-20T11:04:04.088Z,1.58
2022-09-20T11:06:51.324Z,1.10
2022-09-20T11:09:25.567Z,1.20
2022-09-20T11:12:03.609Z,1.13
2022-09-20T11:14:41.590Z,1.50
2022-09-20T11:17:21.131Z,1.00
2022-09-20T11:20:07.108Z,1.00
2022-09-20T11:22:44.829Z,1.20
2022-09-20T11:25:21.626Z,1.23
2022-09-20T11:27:59.150Z,1.23
2022-09-20T11:30:28.797Z,1.20
2022-09-20T11:33:17.568Z,0.98
2022-09-20T11:35:56.536Z,1.10
2022-09-20T11:38:35.618Z,1.60
2022-09-20T11:41:31.229Z,1.30
2022-09-20T11:44:07.252Z,1.15
2022-09-20T11:46:44.104Z,1.40
2022-09-20T11:49:19.673Z,1.20
2022-09-20T11:52:18.207Z,1.42
2022-09-20T11:55:07.865Z,1.33
2022-09-20T11:57:35.420Z,1.30
2022-09-20T12:00:05.110Z,1.25
2022-09-20T12:02:38.624Z,1.15
2022-09-20T12:05:08.338Z,1.50
2022-09-20T12:07:40.148Z,1.30
2022-09-20T12:10:26.080Z,1.60
2022-09-20T12:13:01.098Z,1.50
2022-09-20T12:15:36.890Z,1.02
2022-09-20T12:18:15.644Z,1.17
2022-09-20T12:21:05.056Z,1.58
2022-09-20T12:24:01.909Z,1.25
2022-09-20T12:26:39.642Z,1.55
2022-09-20T12:29:47.945Z,1.52
2022-09-20T12:32:33.877Z,1.08
2022-09-20T12:35:02.311Z,1.10
2022-09-20T12:37:30.558Z,1.40
2022-09-20T12:39:58.616Z,1.10
2022-09-20T12:42:31.172Z,1.50
2022-09-20T12:45:05.603Z,1.10
2022-09-20T12:47:35.332Z,1.33
2022-09-20T12:50:28.282Z,1.20
2022-09-20T12:52:57.905Z,1.70
2022-09-20T12:55:32.437Z,1.35
2022-09-20T12:58:21.339Z,1.15
2022-09-20T13:01:23.971Z,1.20
2022-09-20T13:03:52.198Z,1.10
2022-09-20T13:06:23.681Z,1.13
2022-09-20T13:09:06.157Z,1.33
2022-09-20T13:11:52.710Z,1.15
2022-09-20T13:14:25.053Z,1.30
2022-09-20T13:17:22.910Z,1.27
2022-09-20T13:19:51.709Z,1.23
2022-09-20T13:22:42.761Z,1.30
2022-09-20T13:25:15.144Z,1.30
2022-09-20T13:27:51.765Z,1.25
2022-09-20T13:30:33.000Z,1.55
2022-09-20T13:33:24.049Z,1.10
2022-09-20T13:35:58.884Z,1.55
2022-09-20T13:38:30.825Z,1.20
2022-09-20T13:41:06.642Z,1.20
2022-09-20T13:43:41.786Z,1.35
2022-09-20T13:46:14.117Z,1.27
2022-09-20T13:48:42.807Z,1.33
2022-09-20T13:51:20.856Z,1.55
2022-09-20T13:53:48.477Z,1.35
2022-09-20T13:56:22.020Z,1.40
2022-09-20T13:58:51.031Z,1.65
2022-09-20T14:01:35.922Z,1.75
2022-09-20T14:04:21.792Z,1.67
2022-09-20T14:06:51.215Z,1.70
2022-09-20T14:09:35.375Z,1.30
2022-09-20T14:12:06.050Z,1.80
2022-09-20T14:14:35.258Z,1.52
2022-09-20T14:17:07.457Z,1.77
2022-09-20T14:19:43.823Z,1.70
2022-09-20T14:22:19.253Z,2.22
2022-09-20T14:25:00.053Z,2.25
2022-09-20T14:27:31.621Z,2.63
2022-09-20T14:29:59.412Z,2.22
2022-09-20T14:32:38.542Z,2.90
2022-09-20T14:35:22.471Z,2.63
2022-09-20T14:37:53.586Z,2.08
2022-09-20T14:40:24.918Z,2.00
2022-09-20T14:42:57.160Z,1.90
2022-09-20T14:45:35.032Z,2.15
2022-09-20T14:48:41.620Z,2.20
2022-09-20T14:51:25.595Z,2.00
2022-09-20T14:54:23.250Z,2.13
2022-09-20T14:56:53.517Z,2.20
2022-09-20T14:59:25.302Z,2.33
2022-09-20T15:02:05.284Z,1.95
2022-09-20T15:04:36.118Z,1.77
2022-09-20T15:07:07.811Z,2.15
2022-09-20T15:09:35.480Z,2.47
2022-09-20T15:12:07.217Z,2.03
2022-09-20T15:14:37.803Z,2.40
2022-09-20T15:17:06.242Z,2.10
2022-09-20T15:19:34.735Z,2.25
2022-09-20T15:22:02.555Z,1.83
2022-09-20T15:24:30.165Z,2.05
2022-09-20T15:26:57.733Z,1.85
2022-09-20T15:29:26.389Z,1.90
2022-09-20T15:31:54.349Z,1.98
2022-09-20T15:34:22.151Z,2.58
2022-09-20T15:36:51.016Z,2.35
2022-09-20T15:39:19.067Z,2.35
2022-09-20T15:41:47.297Z,3.00
2022-09-20T15:44:17.220Z,2.15
2022-09-20T15:46:45.309Z,2.50
2022-09-20T15:49:13.186Z,3.28
2022-09-20T15:51:41.225Z,2.28
2022-09-20T15:54:13.079Z,2.30
2022-09-20T15:56:41.181Z,2.30
2022-09-20T15:59:11.439Z,2.53
2022-09-20T16:01:41.744Z,4.07
2022-09-20T16:04:12.760Z,2.40
2022-09-20T16:06:42.551Z,2.70
2022-09-20T16:09:10.676Z,2.60
2022-09-20T16:11:39.153Z,3.22
2022-09-20T16:14:08.220Z,2.80
2022-09-20T16:16:40.403Z,3.08
2022-09-20T16:19:18.363Z,2.95
2022-09-20T16:21:55.119Z,3.08
2022-09-20T16:24:28.725Z,2.72
2022-09-20T16:26:57.347Z,2.58
2022-09-20T16:29:28.419Z,3.10
2022-09-20T16:31:57.991Z,3.13
2022-09-20T16:34:31.358Z,3.28
2022-09-20T16:37:07.767Z,3.10
2022-09-20T16:39:35.922Z,3.13
2022-09-20T16:42:06.480Z,3.47
2022-09-20T16:44:36.613Z,3.60
2022-09-20T16:47:09.984Z,3.28
2022-09-20T16:49:38.924Z,3.13
2022-09-20T16:52:09.897Z,3.33
2022-09-20T16:54:38.701Z,3.60
2022-09-20T16:57:07.362Z,3.70
2022-09-20T16:59:35.302Z,3.60
2022-09-20T17:02:03.735Z,3.63
2022-09-20T17:04:32.569Z,3.40
2022-09-20T17:07:02.593Z,3.83
2022-09-20T17:09:32.126Z,3.20
2022-09-20T17:12:02.055Z,3.13
2022-09-20T17:14:30.908Z,3.40
2022-09-20T17:16:59.014Z,3.03
2022-09-20T17:19:27.304Z,2.95
2022-09-20T17:21:55.609Z,3.47
2022-09-20T17:24:25.261Z,3.13
2022-09-20T17:26:54.180Z,2.83
2022-09-20T17:29:22.357Z,2.95
2022-09-20T17:31:56.129Z,3.50
2022-09-20T17:34:29.377Z,2.90
2022-09-20T17:36:57.564Z,3.00
2022-09-20T17:39:25.792Z,2.97
2022-09-20T17:41:57.046Z,4.53
2022-09-20T17:44:25.673Z,3.20
2022-09-20T17:46:54.825Z,3.53
2022-09-20T17:49:25.277Z,3.22
2022-09-20T17:51:56.957Z,3.70
2022-09-20T17:54:26.407Z,3.72
2022-09-20T17:56:56.637Z,3.80
2022-09-20T17:59:26.880Z,4.03
2022-09-20T18:01:56.688Z,4.93
2022-09-20T18:04:26.426Z,3.63
2022-09-20T18:06:56.498Z,4.10
2022-09-20T18:09:28.555Z,3.90
2022-09-20T18:11:57.612Z,4.50
2022-09-20T18:14:29.793Z,3.90
2022-09-20T18:17:03.383Z,3.85
2022-09-20T18:19:36.163Z,4.00
2022-09-20T18:22:06.251Z,3.90
2022-09-20T18:24:36.212Z,3.90
2022-09-20T18:27:06.894Z,4.47
2022-09-20T18:29:38.742Z,4.78
2022-09-20T18:32:09.998Z,4.25
2022-09-20T18:34:40.040Z,5.07
2022-09-20T18:37:14.433Z,4.70
2022-09-20T18:39:44.725Z,4.03
2022-09-20T18:42:14.198Z,5.03
2022-09-20T18:44:44.996Z,4.90
2022-09-20T18:47:15.441Z,4.50
2022-09-20T18:49:45.274Z,4.38
2022-09-20T18:52:16.555Z,4.70
2022-09-20T18:54:45.618Z,4.90
2022-09-20T18:57:17.079Z,5.15
2022-09-20T18:59:54.387Z,5.65
2022-09-20T19:02:56.868Z,4.80
2022-09-20T19:05:39.347Z,6.70
2022-09-20T19:08:37.018Z,5.32
2022-09-20T19:11:14.190Z,5.18
2022-09-20T19:14:01.902Z,5.22
2022-09-20T19:16:37.935Z,5.72
2022-09-20T19:19:36.555Z,6.35
2022-09-20T19:22:23.895Z,5.03
2022-09-20T19:25:14.674Z,5.70
2022-09-20T19:27:45.945Z,5.13
2022-09-20T19:30:17.746Z,4.85
2022-09-20T19:32:49.380Z,5.38
2022-09-20T19:35:24.065Z,4.90
2022-09-20T19:38:07.243Z,6.18
2022-09-20T19:43:35.538Z,4.70
2022-09-20T19:46:32.614Z,4.95
2022-09-20T19:49:23.096Z,4.80
2022-09-20T19:51:51.829Z,5.15
2022-09-20T19:54:21.201Z,6.63
2022-09-20T19:56:56.437Z,4.95
2022-09-20T19:59:29.333Z,4.63
2022-09-20T20:01:58.951Z,4.47
2022-09-20T20:04:28.966Z,5.13
2022-09-20T20:07:22.399Z,4.90
2022-09-20T20:10:16.514Z,5.38
2022-09-20T20:12:59.108Z,6.13
2022-09-20T20:15:53.425Z,7.07
2022-09-20T20:18:36.473Z,7.75
2022-09-20T20:21:22.894Z,6.43
2022-09-20T20:24:09.564Z,6.88
2022-09-20T20:26:38.207Z,6.18
2022-09-20T20:29:07.053Z,8.48
2022-09-20T20:31:35.812Z,6.07
2022-09-20T20:34:04.259Z,5.75
2022-09-20T20:36:32.222Z,5.43
2022-09-20T20:39:00.798Z,6.25
2022-09-20T20:41:29.796Z,5.75
2022-09-20T20:43:58.447Z,6.25
2022-09-20T20:46:26.706Z,7.70
2022-09-20T20:48:54.993Z,7.28
2022-09-20T20:51:23.928Z,6.75
2022-09-20T20:53:54.551Z,7.03
2022-09-20T20:56:26.222Z,7.53
2022-09-20T20:58:54.863Z,8.88
2022-09-20T21:01:26.412Z,8.93
2022-09-20T21:03:56.475Z,7.43
2022-09-20T21:06:27.417Z,7.68
2022-09-20T21:08:55.247Z,8.70
2022-09-20T21:11:25.572Z,8.35
2022-09-20T21:13:54.900Z,9.05
2022-09-20T21:16:24.579Z,9.02
2022-09-20T21:18:52.760Z,8.90
2022-09-20T21:21:27.049Z,8.57
2022-09-20T21:23:56.694Z,7.97
2022-09-20T21:26:26.059Z,8.95
2022-09-20T21:28:57.121Z,8.25
2022-09-20T21:31:25.209Z,9.93
2022-09-20T21:33:54.219Z,8.27
2022-09-20T21:36:24.673Z,8.07
2022-09-20T21:38:52.299Z,9.85
2022-09-20T21:41:23.603Z,8.98
2022-09-20T21:43:55.304Z,8.93
2022-09-20T21:46:29.495Z,9.27
2022-09-20T21:48:58.732Z,9.25
2022-09-20T21:51:29.949Z,10.30
2022-09-20T21:53:59.436Z,9.63
2022-09-20T21:56:29.242Z,10.25
2022-09-20T21:58:57.449Z,11.00
2022-09-20T22:01:27.513Z,10.00
2022-09-20T22:03:59.255Z,10.82
2022-09-20T22:06:31.454Z,10.43
2022-09-20T22:09:01.474Z,10.87
2022-09-20T22:11:31.678Z,10.55
2022-09-20T22:13:59.567Z,10.05
2022-09-20T22:16:30.023Z,10.82
2022-09-20T22:18:59.899Z,10.93
2022-09-20T22:21:30.862Z,10.95
2022-09-20T22:24:01.839Z,11.43
2022-09-20T22:26:32.255Z,12.80
2022-09-20T22:29:00.674Z,10.07
2022-09-20T22:31:33.144Z,9.70
2022-09-20T22:34:04.117Z,10.18
2022-09-20T22:36:35.870Z,8.70
2022-09-20T22:39:04.990Z,8.90
2022-09-20T22:41:32.482Z,9.05
2022-09-20T22:44:01.117Z,9.50
2022-09-20T22:46:30.821Z,9.15
2022-09-20T22:48:58.255Z,10.02
2022-09-20T22:51:28.937Z,10.27
2022-09-20T22:53:56.605Z,9.10
2022-09-20T22:56:28.989Z,8.50
2022-09-20T22:59:00.379Z,9.05
2022-09-20T23:01:31.121Z,10.10
2022-09-20T23:04:04.496Z,9.18
2022-09-20T23:06:49.107Z,10.13
2022-09-20T23:09:18.355Z,9.70
2022-09-20T23:11:46.565Z,9.98
2022-09-20T23:14:16.618Z,10.07
2022-09-20T23:16:44.426Z,10.05
2022-09-20T23:19:13.745Z,10.25
2022-09-20T23:21:43.107Z,9.60
2022-09-20T23:24:12.587Z,9.02
2022-09-20T23:26:41.239Z,10.15
2022-09-20T23:29:11.274Z,9.52
2022-09-20T23:31:40.537Z,9.68
2022-09-20T23:34:09.931Z,10.02
2022-09-20T23:36:39.629Z,9.90
2022-09-20T23:39:08.758Z,9.43
2022-09-20T23:41:37.492Z,9.50
2022-09-20T23:44:07.501Z,9.30
2022-09-20T23:46:36.729Z,9.48
2022-09-20T23:49:04.657Z,9.88
2022-09-20T23:51:32.844Z,8.65
2022-09-20T23:54:00.367Z,8.85
2022-09-20T23:56:28.923Z,9.30
2022-09-20T23:58:56.653Z,9.77
